createdAt,value
2018-02-23T00:00:19.998Z,1010.25
2018-02-23T00:01:17.934Z,1010.27
2018-02-23T00:02:22.605Z,1010.25
2018-02-23T00:03:20.051Z,1010.23
2018-02-23T00:04:17.717Z,1010.16
2018-02-23T00:05:17.848Z,1010.18
2018-02-23T00:06:17.862Z,1010.23
2018-02-23T00:07:17.792Z,1010.15
2018-02-23T00:08:17.644Z,1010.17
2018-02-23T00:09:17.650Z,1010.20
2018-02-23T00:10:17.626Z,1010.20
2018-02-23T00:11:17.577Z,1010.22
2018-02-23T00:12:17.601Z,1010.16
2018-02-23T00:13:17.828Z,1010.17
2018-02-23T00:14:17.623Z,1010.22
2018-02-23T00:15:17.545Z,1010.23
2018-02-23T00:16:17.865Z,1010.26
2018-02-23T00:17:17.532Z,1010.20
2018-02-23T00:18:17.439Z,1010.23
2018-02-23T00:19:17.467Z,1010.22
2018-02-23T00:20:17.819Z,1010.24
2018-02-23T00:21:17.418Z,1010.27
2018-02-23T00:22:17.371Z,1010.27
2018-02-23T00:23:17.486Z,1010.30
2018-02-23T00:24:17.620Z,1010.25
2018-02-23T00:25:17.822Z,1010.23
2018-02-23T00:26:17.476Z,1010.24
2018-02-23T00:27:17.299Z,1010.25
2018-02-23T00:28:17.292Z,1010.27
2018-02-23T00:29:17.406Z,1010.31
2018-02-23T00:30:17.445Z,1010.30
2018-02-23T00:31:17.220Z,1010.27
2018-02-23T00:32:17.383Z,1010.25
2018-02-23T00:33:17.212Z,1010.28
2018-02-23T00:34:17.558Z,1010.23
2018-02-23T00:35:19.906Z,1010.23
2018-02-23T00:36:17.133Z,1010.21
2018-02-23T00:37:18.259Z,1010.22
2018-02-23T00:38:17.086Z,1010.24
2018-02-23T00:39:18.832Z,1010.22
2018-02-23T00:40:17.077Z,1010.19
2018-02-23T00:41:17.343Z,1010.21
2018-02-23T00:42:17.434Z,1010.18
2018-02-23T00:43:17.773Z,1010.20
2018-02-23T00:44:19.153Z,1010.23
2018-02-23T00:45:17.218Z,1010.20
2018-02-23T00:46:17.182Z,1010.18
2018-02-23T00:47:34.137Z,1010.23
2018-02-23T00:48:17.241Z,1010.24
2018-02-23T00:49:17.072Z,1010.23
2018-02-23T00:50:19.223Z,1010.25
2018-02-23T00:51:25.151Z,1010.26
2018-02-23T00:52:17.266Z,1010.22
2018-02-23T00:53:16.996Z,1010.27
2018-02-23T00:54:18.265Z,1010.28
2018-02-23T00:55:17.993Z,1010.32
2018-02-23T00:56:16.856Z,1010.29
2018-02-23T00:57:17.337Z,1010.26
2018-02-23T00:58:16.813Z,1010.26
2018-02-23T00:59:17.554Z,1010.29
2018-02-23T01:00:16.743Z,1010.29
2018-02-23T01:01:16.736Z,1010.26
2018-02-23T01:02:17.503Z,1010.28
2018-02-23T01:03:16.783Z,1010.29
2018-02-23T01:04:16.731Z,1010.27
2018-02-23T01:05:17.228Z,1010.27
2018-02-23T01:06:17.345Z,1010.26
2018-02-23T01:07:17.362Z,1010.26
2018-02-23T01:08:16.692Z,1010.24
2018-02-23T01:09:17.652Z,1010.28
2018-02-23T01:10:16.682Z,1010.27
2018-02-23T01:11:16.631Z,1010.25
2018-02-23T01:12:16.864Z,1010.25
2018-02-23T01:13:23.518Z,1010.20
2018-02-23T01:14:17.677Z,1010.21
2018-02-23T01:15:38.644Z,1010.23
2018-02-23T01:16:16.483Z,1010.26
2018-02-23T01:17:16.594Z,1010.22
2018-02-23T01:18:31.407Z,1010.24
2018-02-23T01:19:28.593Z,1010.22
2018-02-23T01:20:19.802Z,1010.21
2018-02-23T01:21:17.781Z,1010.18
2018-02-23T01:22:16.443Z,1010.19
2018-02-23T01:23:16.484Z,1010.19
2018-02-23T01:24:17.909Z,1010.19
2018-02-23T01:25:17.831Z,1010.18
2018-02-23T01:26:16.349Z,1010.17
2018-02-23T01:27:16.523Z,1010.14
2018-02-23T01:28:31.001Z,1010.18
2018-02-23T01:29:17.353Z,1010.16
2018-02-23T01:30:17.161Z,1010.14
2018-02-23T01:31:16.374Z,1010.20
2018-02-23T01:32:17.079Z,1010.19
2018-02-23T01:33:17.006Z,1010.16
2018-02-23T01:34:22.803Z,1010.17
2018-02-23T01:35:16.181Z,1010.18
2018-02-23T01:36:16.472Z,1010.16
2018-02-23T01:37:16.090Z,1010.12
2018-02-23T01:38:16.882Z,1010.09
2018-02-23T01:39:17.402Z,1010.11
2018-02-23T01:40:17.843Z,1010.08
2018-02-23T01:41:17.255Z,1010.07
2018-02-23T01:42:17.897Z,1010.12
2018-02-23T01:43:17.296Z,1010.07
2018-02-23T01:44:16.478Z,1010.06
2018-02-23T01:45:17.060Z,1010.05
2018-02-23T01:46:16.064Z,1010.05
2018-02-23T01:47:19.058Z,1010.07
2018-02-23T01:48:15.889Z,1010.02
2018-02-23T01:49:15.845Z,1010.02
2018-02-23T01:50:15.921Z,1010.04
2018-02-23T01:51:17.296Z,1010.09
2018-02-23T01:52:40.196Z,1010.06
2018-02-23T01:53:15.761Z,1010.05
2018-02-23T01:54:17.629Z,1010.01
2018-02-23T01:55:15.876Z,1010.00
2018-02-23T01:56:15.700Z,1010.03
2018-02-23T01:57:15.960Z,1010.02
2018-02-23T01:58:33.939Z,1009.98
2018-02-23T01:59:16.568Z,1009.93
2018-02-23T02:00:17.650Z,1009.96
2018-02-23T02:01:17.656Z,1009.94
2018-02-23T02:02:15.694Z,1009.94
2018-02-23T02:03:18.535Z,1009.94
2018-02-23T02:04:15.648Z,1009.94
2018-02-23T02:05:15.798Z,1009.93
2018-02-23T02:06:17.370Z,1009.94
2018-02-23T02:07:18.980Z,1009.98
2018-02-23T02:08:16.320Z,1009.95
2018-02-23T02:09:17.403Z,1009.91
2018-02-23T02:45:25.628Z,1009.78
2018-02-23T02:45:56.976Z,1009.75
2018-02-23T02:46:56.960Z,1009.78
2018-02-23T02:47:57.031Z,1009.74
2018-02-23T02:48:57.399Z,1009.78
2018-02-23T02:49:58.501Z,1009.74
2018-02-23T02:50:57.221Z,1009.72
2018-02-23T02:52:03.910Z,1009.71
2018-02-23T02:52:56.872Z,1009.73
2018-02-23T02:53:57.685Z,1009.78
2018-02-23T02:54:57.548Z,1009.76
2018-02-23T02:55:56.945Z,1009.78
2018-02-23T02:56:58.197Z,1009.83
2018-02-23T02:57:58.280Z,1009.79
2018-02-23T02:58:57.040Z,1009.85
2018-02-23T03:00:03.885Z,1009.85
2018-02-23T03:00:57.780Z,1009.89
2018-02-23T03:01:57.041Z,1009.86
2018-02-23T03:02:56.672Z,1009.88
2018-02-23T03:03:57.708Z,1009.82
2018-02-23T03:04:57.387Z,1009.83
2018-02-23T03:05:56.961Z,1009.88
2018-02-23T03:06:56.697Z,1009.80
2018-02-23T03:07:56.739Z,1009.85
2018-02-23T03:08:58.343Z,1009.81
2018-02-23T03:09:58.440Z,1009.84
2018-02-23T03:11:01.416Z,1009.84
2018-02-23T03:11:56.822Z,1009.81
2018-02-23T18:43:29.415Z,1010.45
2018-02-23T18:44:23.307Z,1010.48
2018-02-23T18:45:24.814Z,1010.47
2018-02-23T18:46:23.802Z,1010.46
2018-02-23T18:47:23.243Z,1010.45
2018-02-23T18:48:23.797Z,1010.46
2018-02-23T18:49:23.219Z,1010.51
2018-02-23T18:50:23.182Z,1010.53
2018-02-23T18:51:23.292Z,1010.50
2018-02-23T18:52:23.169Z,1010.53
2018-02-23T18:53:23.131Z,1010.50
2018-02-23T18:54:23.197Z,1010.56
2018-02-23T18:55:23.102Z,1010.54
2018-02-23T18:56:23.074Z,1010.51
2018-02-23T18:57:23.116Z,1010.51
2018-02-23T18:58:23.822Z,1010.48
2018-02-23T18:59:23.027Z,1010.45
2018-02-23T19:00:23.025Z,1010.47
2018-02-23T19:01:22.996Z,1010.42
2018-02-23T19:02:22.977Z,1010.43
2018-02-23T19:03:22.944Z,1010.45
2018-02-23T19:04:24.907Z,1010.43
2018-02-23T19:05:23.813Z,1010.43
2018-02-23T19:06:22.890Z,1010.46
2018-02-23T19:07:23.016Z,1010.43
2018-02-23T19:08:22.868Z,1010.45
2018-02-23T19:09:23.811Z,1010.45
2018-02-23T19:10:22.859Z,1010.44
2018-02-23T19:11:22.851Z,1010.39
2018-02-23T19:12:22.901Z,1010.36
2018-02-23T19:13:22.767Z,1010.38
2018-02-23T19:14:22.738Z,1010.41
2018-02-23T19:15:22.955Z,1010.41
2018-02-23T19:16:23.309Z,1010.40
2018-02-23T19:17:22.680Z,1010.45
2018-02-23T19:18:22.677Z,1010.55
2018-02-23T19:19:22.658Z,1010.57
2018-02-23T19:20:22.692Z,1010.61
2018-02-23T19:21:22.617Z,1010.67
2018-02-23T19:22:22.592Z,1010.70
2018-02-23T19:23:22.570Z,1010.67
2018-02-23T19:24:22.549Z,1010.70
2018-02-23T19:25:22.526Z,1010.74
2018-02-23T19:26:22.522Z,1010.71
2018-02-23T19:27:22.491Z,1010.74
2018-02-23T19:28:22.481Z,1010.74
2018-02-23T19:29:22.528Z,1010.78
2018-02-23T19:30:23.432Z,1010.73
2018-02-23T19:31:22.917Z,1010.71
2018-02-23T19:32:22.467Z,1010.73
2018-02-23T19:33:22.388Z,1010.80
2018-02-23T19:34:22.353Z,1010.82
2018-02-23T19:35:22.351Z,1010.80
2018-02-23T19:36:22.316Z,1010.81
2018-02-23T19:37:22.340Z,1010.84
2018-02-23T19:38:22.283Z,1010.86
2018-02-23T19:39:22.272Z,1010.90
2018-02-23T19:40:22.250Z,1010.87
2018-02-23T19:41:22.269Z,1010.91
2018-02-23T19:42:22.263Z,1010.89
2018-02-23T19:43:22.271Z,1010.97
2018-02-23T19:44:22.161Z,1010.96
2018-02-23T19:45:22.245Z,1010.96
2018-02-23T19:46:22.126Z,1010.91
2018-02-23T19:47:22.137Z,1010.90
2018-02-23T19:48:22.094Z,1010.87
2018-02-23T19:49:22.071Z,1010.93
2018-02-23T19:50:22.129Z,1010.97
2018-02-23T19:51:22.055Z,1010.99
2018-02-23T19:52:22.044Z,1011.03
2018-02-23T19:53:22.039Z,1011.00
2018-02-23T19:54:21.977Z,1011.02
2018-02-23T19:55:22.001Z,1011.00
2018-02-23T19:56:21.963Z,1011.00
2018-02-23T19:57:21.953Z,1011.01
2018-02-23T19:58:22.176Z,1010.98
2018-02-23T19:59:21.919Z,1011.00
2018-02-23T20:00:21.902Z,1011.03
2018-02-23T20:01:21.838Z,1011.02
2018-02-23T20:02:21.834Z,1011.04
2018-02-23T20:03:21.808Z,1011.08
2018-02-23T20:04:21.803Z,1011.00
2018-02-23T20:05:21.906Z,1011.07
2018-02-23T20:06:21.737Z,1011.07
2018-02-23T20:07:21.721Z,1011.10
2018-02-23T20:08:21.700Z,1011.14
2018-02-23T20:09:21.759Z,1011.16
2018-02-23T20:10:21.673Z,1011.14
2018-02-23T20:11:21.828Z,1011.14
2018-02-23T20:12:21.696Z,1011.11
2018-02-23T20:13:21.587Z,1011.13
2018-02-23T20:14:21.573Z,1011.15
2018-02-23T20:15:21.772Z,1011.20
2018-02-23T20:16:21.544Z,1011.23
2018-02-23T20:17:21.529Z,1011.25
2018-02-23T20:18:23.640Z,1011.25
2018-02-23T20:19:21.488Z,1011.27
2018-02-23T20:20:21.546Z,1011.28
2018-02-23T20:21:21.465Z,1011.31
2018-02-23T20:22:21.438Z,1011.31
2018-02-23T20:23:21.636Z,1011.33
2018-02-23T20:24:21.380Z,1011.25
2018-02-23T20:25:22.330Z,1011.29
2018-02-23T20:26:21.483Z,1011.39
2018-02-23T20:27:21.542Z,1011.35
2018-02-23T20:28:21.318Z,1011.32
2018-02-23T20:29:21.365Z,1011.28
2018-02-23T20:30:21.276Z,1011.32
2018-02-23T20:31:25.953Z,1011.27
2018-02-23T20:32:21.243Z,1011.28
2018-02-23T20:33:21.265Z,1011.27
2018-02-23T20:34:21.498Z,1011.30
2018-02-23T20:35:21.160Z,1011.29
2018-02-23T20:36:21.167Z,1011.29
2018-02-23T20:37:21.830Z,1011.27
2018-02-23T20:38:21.117Z,1011.27
2018-02-23T20:39:21.456Z,1011.25
2018-02-23T20:40:21.100Z,1011.26
2018-02-23T20:41:21.076Z,1011.28
2018-02-23T20:42:21.042Z,1011.31
2018-02-23T20:43:21.175Z,1011.28
2018-02-23T20:44:21.054Z,1011.22
2018-02-23T20:45:21.025Z,1011.29
2018-02-23T20:46:21.041Z,1011.26
2018-02-23T20:47:21.937Z,1011.25
2018-02-23T20:48:20.992Z,1010.89
2018-02-23T20:49:21.001Z,1011.20
2018-02-23T20:50:20.943Z,1011.20
2018-02-23T20:51:21.999Z,1011.21
2018-02-23T20:52:36.105Z,1011.21
2018-02-23T20:53:20.889Z,1011.17
2018-02-23T20:54:21.034Z,1011.25
2018-02-23T20:55:21.674Z,1011.18
2018-02-23T20:56:21.228Z,1011.20
2018-02-23T20:57:22.442Z,1011.15
2018-02-23T20:58:21.553Z,1011.16
2018-02-23T20:59:20.845Z,1011.14
2018-02-23T21:00:21.149Z,1011.16
2018-02-23T21:01:20.813Z,1011.23
2018-02-23T21:02:20.734Z,1011.22
2018-02-23T21:03:21.621Z,1011.22
2018-02-23T21:04:20.755Z,1011.21
2018-02-23T21:05:20.633Z,1011.21
2018-02-23T21:06:20.578Z,1011.22
2018-02-23T21:07:20.704Z,1011.26
2018-02-23T21:08:20.745Z,1011.24
2018-02-23T21:09:21.374Z,1011.25
2018-02-23T21:10:20.603Z,1011.30
2018-02-23T21:11:20.866Z,1011.27
2018-02-23T21:12:35.565Z,1011.26
2018-02-23T21:13:21.676Z,1011.27
2018-02-23T21:14:20.612Z,1011.25
2018-02-23T21:15:21.635Z,1011.26
2018-02-23T21:16:20.518Z,1011.27
2018-02-23T21:17:20.468Z,1011.19
2018-02-23T21:18:24.848Z,1011.21
2018-02-23T21:19:20.306Z,1011.20
2018-02-23T21:20:20.626Z,1011.14
2018-02-23T21:21:20.261Z,1011.15
2018-02-23T21:22:20.992Z,1011.13
2018-02-23T21:23:20.835Z,1011.14
2018-02-23T21:24:21.382Z,1011.14
2018-02-23T21:25:20.187Z,1011.13
2018-02-23T21:26:20.193Z,1011.15
2018-02-23T21:27:20.207Z,1011.15
2018-02-23T21:28:20.471Z,1011.12
2018-02-23T21:29:20.129Z,1011.10
2018-02-23T21:30:20.132Z,1011.13
2018-02-23T21:31:20.141Z,1011.11
2018-02-23T21:32:20.258Z,1011.11
2018-02-23T21:33:20.074Z,1011.06
2018-02-23T21:34:20.004Z,1011.08
2018-02-23T21:35:25.845Z,1011.04
2018-02-23T21:36:20.832Z,1011.02
2018-02-23T21:37:20.233Z,1011.06
2018-02-23T21:38:20.103Z,1011.08
2018-02-23T21:39:20.272Z,1011.05
2018-02-23T21:40:19.869Z,1011.12
2018-02-23T21:41:21.333Z,1011.16
2018-02-23T21:42:19.841Z,1011.14
2018-02-23T21:43:20.428Z,1011.17
2018-02-23T21:44:19.927Z,1011.17
2018-02-23T21:45:19.802Z,1011.23
2018-02-23T21:46:19.801Z,1011.20
2018-02-23T21:47:19.801Z,1011.26
2018-02-23T21:48:19.867Z,1011.27
2018-02-23T21:49:21.443Z,1011.26
2018-02-23T21:50:19.688Z,1011.25
2018-02-23T21:51:19.666Z,1011.24
2018-02-23T21:52:19.696Z,1011.23
2018-02-23T21:53:19.789Z,1011.28
2018-02-23T21:54:20.823Z,1011.26
2018-02-23T21:55:19.646Z,1011.28
2018-02-23T21:56:19.549Z,1011.27
2018-02-23T21:57:19.602Z,1011.29
2018-02-23T21:58:19.537Z,1011.25
2018-02-23T21:59:20.496Z,1011.33
2018-02-23T22:00:19.675Z,1011.32
2018-02-23T22:01:19.459Z,1011.31
2018-02-23T22:02:19.518Z,1011.30
2018-02-23T22:03:19.553Z,1011.30
2018-02-23T22:04:19.399Z,1011.29
2018-02-23T22:05:19.396Z,1011.37
2018-02-23T22:06:19.355Z,1011.34
2018-02-23T22:07:19.646Z,1011.33
2018-02-23T22:08:19.387Z,1011.37
2018-02-23T22:09:19.327Z,1011.36
2018-02-23T22:10:19.464Z,1011.36
2018-02-23T22:11:19.992Z,1011.40
2018-02-23T22:12:19.579Z,1011.40
2018-02-23T22:13:19.578Z,1011.44
2018-02-23T22:14:20.065Z,1011.40
2018-02-23T22:15:19.432Z,1011.50
2018-02-23T22:16:20.220Z,1011.49
2018-02-23T22:17:19.217Z,1011.54
2018-02-23T22:18:20.877Z,1011.53
2018-02-23T22:19:19.254Z,1011.56
2018-02-23T22:20:25.897Z,1011.53
2018-02-23T22:21:19.211Z,1011.50
2018-02-23T22:22:19.056Z,1011.53
2018-02-23T22:23:19.359Z,1011.50
2018-02-23T22:24:19.022Z,1011.53
2018-02-23T22:25:19.199Z,1011.52
2018-02-23T22:26:19.486Z,1011.53
2018-02-23T22:27:19.030Z,1011.58
2018-02-23T22:28:19.135Z,1011.48
2018-02-23T22:29:20.248Z,1011.51
2018-02-23T22:30:18.941Z,1011.50
2018-02-23T22:31:19.130Z,1011.51
2018-02-23T22:32:20.072Z,1011.48
2018-02-23T22:33:18.954Z,1011.56
2018-02-23T22:34:18.795Z,1011.53
2018-02-23T22:35:19.214Z,1011.50
2018-02-23T22:36:18.975Z,1011.53
2018-02-23T22:37:19.426Z,1011.52
2018-02-23T22:38:18.740Z,1011.52
2018-02-23T22:39:18.701Z,1011.49
2018-02-23T22:40:18.684Z,1011.56
2018-02-23T22:41:18.745Z,1011.58
2018-02-23T22:42:19.678Z,1011.60
2018-02-23T22:43:18.948Z,1011.60
2018-02-23T22:44:18.990Z,1011.66
2018-02-23T22:45:18.756Z,1011.68
2018-02-23T22:46:18.735Z,1011.70
2018-02-23T22:47:18.615Z,1011.71
2018-02-23T22:48:18.768Z,1011.74
2018-02-23T22:49:20.361Z,1011.71
2018-02-23T22:50:18.577Z,1011.72
2018-02-23T22:51:18.515Z,1011.75
2018-02-23T22:52:18.629Z,1011.70
2018-02-23T22:53:18.585Z,1011.77
2018-02-23T22:54:18.437Z,1011.73
2018-02-23T22:55:18.599Z,1011.68
2018-02-23T22:56:18.382Z,1011.75
2018-02-23T22:57:18.439Z,1011.70
2018-02-23T22:58:18.521Z,1011.75
2018-02-23T22:59:18.390Z,1011.73
2018-02-23T23:00:18.506Z,1011.73
2018-02-23T23:01:18.411Z,1011.75
2018-02-23T23:02:18.327Z,1011.76
2018-02-23T23:03:23.688Z,1011.70
2018-02-23T23:04:18.255Z,1011.74
2018-02-23T23:05:18.980Z,1011.70
2018-02-23T23:06:19.065Z,1011.73
2018-02-23T23:07:18.318Z,1011.69
2018-02-23T23:08:18.201Z,1011.71
2018-02-23T23:09:18.118Z,1011.71
2018-02-23T23:10:18.286Z,1011.66
2018-02-23T23:11:18.159Z,1011.70
2018-02-23T23:12:18.138Z,1011.70
2018-02-23T23:13:18.876Z,1011.66
2018-02-23T23:14:19.871Z,1011.62
2018-02-23T23:15:19.870Z,1011.67
2018-02-23T23:16:21.043Z,1011.66
2018-02-23T23:17:23.032Z,1011.63
2018-02-23T23:18:18.085Z,1011.65
2018-02-23T23:19:19.051Z,1011.70
2018-02-23T23:20:17.970Z,1011.72
2018-02-23T23:21:17.920Z,1011.79
2018-02-23T23:22:18.309Z,1011.76
2018-02-23T23:23:18.660Z,1011.77
2018-02-23T23:24:18.135Z,1011.82
2018-02-23T23:25:18.083Z,1011.83
2018-02-23T23:26:19.605Z,1011.82
2018-02-23T23:27:19.521Z,1011.84
2018-02-23T23:28:17.889Z,1011.87
2018-02-23T23:29:18.864Z,1011.84
2018-02-23T23:30:19.630Z,1011.86
2018-02-23T23:31:22.582Z,1011.81
2018-02-23T23:32:17.795Z,1011.87
2018-02-23T23:33:19.387Z,1011.85
2018-02-23T23:34:17.696Z,1011.86
2018-02-23T23:35:25.580Z,1011.90
2018-02-23T23:36:17.879Z,1011.86
2018-02-23T23:37:17.577Z,1011.89
2018-02-23T23:38:17.641Z,1011.91
2018-02-23T23:39:19.563Z,1011.91
2018-02-23T23:40:17.537Z,1011.90
2018-02-23T23:41:17.860Z,1011.91
2018-02-23T23:42:17.637Z,1011.88
2018-02-23T23:43:21.515Z,1011.86
2018-02-23T23:44:17.379Z,1011.86
2018-02-23T23:45:17.571Z,1011.85
2018-02-23T23:46:17.693Z,1011.82
2018-02-23T23:47:17.358Z,1011.80
2018-02-23T23:48:17.296Z,1011.79
2018-02-23T23:49:17.304Z,1011.81
2018-02-23T23:50:18.995Z,1011.77
2018-02-23T23:51:17.871Z,1011.78
2018-02-23T23:52:17.316Z,1011.80
2018-02-23T23:53:17.313Z,1011.78
2018-02-23T23:54:17.210Z,1011.79
2018-02-23T23:55:18.997Z,1011.82
2018-02-23T23:56:17.227Z,1011.76
2018-02-23T23:57:17.109Z,1011.81
2018-02-23T23:58:17.092Z,1011.79
2018-02-23T23:59:22.286Z,1011.80
